Pagrindinis puslapis
METAR-TAF:

METAR-TAF

Oro uostai :

Kuopijas, Suomija

platuma: 63-01N, ilguma: 027-48E, Aukštis: 98 m

Dabartinis oras

Ataskaita buvo paskelbta 41 minutes, ne 12:20 UTC
Vėjas 5 kt iš Šiaurės Rytų, svyruoja nuo Šiaurės ir Rytų
Temperatūra 15°C
Drėgmė 59%
Slėgis 1025 hPa
Matomumas 10 km arba daugiau
Su prošvaistėmis ne aukštis 3800 ft

METAR: EFKU 011220Z AUTO 04005KT 350V080 9999 BKN038 15/07 Q1025

Laikas: 16:01 (13:01 UTC)

Prognozė

Ataskaita buvo paskelbta 1 valandą ir 26 minutes, ne 11:35 UTC
Prognozė galioja nuo 01 metu 12 UTC su 02 metu 12 UTC
Vėjas 5 kt iš Šiaurės
Matomumas 10 km arba daugiau
Su prošvaistėmis ne aukštis 3900 ft

TAF: EFKU 011135Z 0112/0212 01005KT 9999 BKN039

Orai ataskaitas ir orų prognozės (METAR, TAF).

turimą stotys yra geltonos ir raudonos taškus žemėlapyje.

Perkelti pele per norėdami pamatyti stoties vardą.

Tada spustelėkite, norėdami matyti oro stebėjimo ir prognozės.

Norėdami pakeisti žemėlapį: spustelėkite ant žalios mygtukų su juodo kryžiaus žemyn,; žalią mygtuką su brūkšneliu, jei norite nutolinti; arba žalių rodyklių gretimoms žemėlapius.


METAR-TAF: